Onyx, California
Current Conditions -  °F | °C
As of 12:56 AM on Wednesday 22 Oct 2014 (Local Time) from KNID Reporting Station
Clear Clear  
Wind Chill: 56°   Ceiling: Unl
Heat Index: 56°   Visibility: 10mi
Dew Point: 35°   Wind: 7mph
Humidity: 45%   Direction: 200°SSW
Pressure: 29.91"   Gusts: NA
Location:  35.69°N, 118.22°W
Report Text: KNID 220756Z AUTO 20006KT 10SM CLR 13/02 A2991 RMK AO2 SLP118 T01330017 402720106 $
Loading
Personal Weather Stations






























Interactive Weather Map
Tropical Storm Tracking
New forecast layout! Learn more

10-Day Weather Forecast

Advertisements
Track Severe Weather on mobile